Time;durP1;ratioP1;P1;durP2;ratioP2;P2;SDS_P1;SDS_P2;PMS_P1;PMS_P2;Temp;Humidity;BMP_temperature;BMP_pressure;BME280_temperature;BME280_humidity;BME280_pressure;Samples;Min_cycle;Max_cycle;Signal;HPM_P1;HPM_P2
2022/07/11 00:02:15;;;;;;;11.67;9.30;;;20.30;99.90;;;;;;5007084;28;20383;-92
2022/07/11 00:04:47;;;;;;;11.48;10.18;;;20.30;99.90;;;;;;5002908;28;20513;-91
2022/07/11 00:07:14;;;;;;;11.13;7.80;;;20.30;99.90;;;;;;4990476;28;20058;-92
2022/07/11 00:09:41;;;;;;;9.07;7.80;;;20.30;99.90;;;;;;4994986;28;20022;-91
2022/07/11 00:12:09;;;;;;;10.68;7.65;;;20.40;99.90;;;;;;5001349;28;20104;-92
2022/07/11 00:14:35;;;;;;;;;;;20.40;99.90;;;;;;4996851;28;20041;-93
2022/07/11 00:17:01;;;;;;;10.60;7.47;;;20.40;99.90;;;;;;5001467;28;19904;-89
2022/07/11 00:19:27;;;;;;;8.63;6.70;;;20.50;99.90;;;;;;5009075;28;20023;-89
2022/07/11 00:21:53;;;;;;;13.57;8.35;;;20.40;99.90;;;;;;4996889;28;20044;-89
2022/07/11 00:24:20;;;;;;;10.80;7.85;;;20.40;99.90;;;;;;4999382;28;20023;-91
2022/07/11 00:26:49;;;;;;;11.07;7.82;;;20.40;99.60;;;;;;4995246;28;20038;-90
2022/07/11 00:29:16;;;;;;;11.82;7.68;;;20.40;99.60;;;;;;4964179;28;20030;-92
2022/07/11 00:31:42;;;;;;;15.70;7.55;;;20.50;99.40;;;;;;4963950;28;20046;-90
2022/07/11 00:34:08;;;;;;;7.93;7.18;;;20.50;99.40;;;;;;4993090;28;20105;-93
2022/07/11 00:36:34;;;;;;;9.82;7.15;;;20.60;99.30;;;;;;4977858;28;20093;-92
2022/07/11 00:39:00;;;;;;;8.02;7.25;;;20.60;99.50;;;;;;4974716;28;20032;-91
2022/07/11 00:41:26;;;;;;;10.98;7.57;;;20.60;99.70;;;;;;4988818;28;20018;-92
2022/07/11 00:43:56;;;;;;;8.60;7.57;;;20.70;99.60;;;;;;4978639;28;20070;-91
2022/07/11 00:46:23;;;;;;;10.57;7.45;;;20.70;99.70;;;;;;4977587;28;20041;-91
2022/07/11 00:48:49;;;;;;;9.05;7.53;;;20.70;99.60;;;;;;4988897;28;20041;-92
2022/07/11 00:51:18;;;;;;;8.30;7.15;;;20.70;99.70;;;;;;4991900;28;20031;-91
2022/07/11 00:53:44;;;;;;;9.85;6.78;;;20.70;99.60;;;;;;4949937;28;20039;-90
2022/07/11 00:56:10;;;;;;;11.13;7.82;;;20.60;99.80;;;;;;4958154;28;20058;-92
2022/07/11 00:58:36;;;;;;;8.20;6.78;;;20.60;99.90;;;;;;4949293;28;20496;-91
2022/07/11 01:01:03;;;;;;;11.57;8.02;;;20.50;99.90;;;;;;4960826;28;20031;-90
2022/07/11 01:03:29;;;;;;;9.03;7.37;;;20.50;99.90;;;;;;4954522;28;20458;-91
2022/07/11 01:05:54;;;;;;;12.90;7.72;;;20.50;99.90;;;;;;4961065;28;20027;-91
2022/07/11 01:08:20;;;;;;;10.90;8.43;;;20.50;99.90;;;;;;4959588;28;20031;-91
2022/07/11 01:10:47;;;;;;;8.43;7.53;;;20.40;99.90;;;;;;4950604;28;20043;-93
2022/07/11 01:13:13;;;;;;;8.77;7.97;;;20.40;99.90;;;;;;4943135;29;20070;-88
2022/07/11 01:15:38;;;;;;;9.38;7.60;;;20.30;99.90;;;;;;4955199;28;20034;-91
2022/07/11 01:18:04;;;;;;;8.45;7.35;;;20.30;99.90;;;;;;4939139;28;20036;-90
2022/07/11 01:20:30;;;;;;;8.77;7.75;;;20.30;99.90;;;;;;4946731;28;20052;-90
2022/07/11 01:23:22;;;;;;;10.00;7.28;;;20.30;99.90;;;;;;4931988;29;20027;-90
2022/07/11 01:25:48;;;;;;;9.85;8.10;;;20.30;99.90;;;;;;4992735;28;20061;-90
2022/07/11 01:28:14;;;;;;;9.77;8.32;;;20.30;99.90;;;;;;4991239;28;20027;-89
2022/07/11 01:30:40;;;;;;;11.05;8.07;;;20.40;99.80;;;;;;4990783;28;20688;-91
2022/07/11 01:33:06;;;;;;;11.55;7.70;;;20.40;99.40;;;;;;4994060;28;20029;-88
2022/07/11 01:35:31;;;;;;;11.82;7.68;;;20.40;99.40;;;;;;5010132;28;20109;-91
2022/07/11 01:37:58;;;;;;;8.27;7.47;;;20.50;99.10;;;;;;4994342;28;20083;-91
2022/07/11 01:40:24;;;;;;;9.68;8.02;;;20.60;98.90;;;;;;4982245;28;20030;-91
2022/07/11 01:42:50;;;;;;;7.68;6.93;;;20.60;98.90;;;;;;4980890;28;20409;-90
2022/07/11 01:45:16;;;;;;;8.00;7.22;;;20.60;98.50;;;;;;4980094;28;20030;-91
2022/07/11 01:47:41;;;;;;;9.88;7.72;;;20.70;98.30;;;;;;4985161;28;20085;-90
2022/07/11 01:50:07;;;;;;;9.38;7.40;;;20.70;98.30;;;;;;4965991;28;20068;-91
2022/07/11 01:52:33;;;;;;;9.93;7.35;;;20.70;98.10;;;;;;4999028;28;20046;-90
2022/07/11 01:54:59;;;;;;;10.38;7.65;;;20.70;98.10;;;;;;4980577;28;20030;-89
2022/07/11 01:57:25;;;;;;;10.52;7.82;;;20.80;97.90;;;;;;5011624;28;20431;-90
2022/07/11 01:59:51;;;;;;;9.90;7.15;;;20.80;97.80;;;;;;4992004;28;20022;-89
2022/07/11 02:02:17;;;;;;;9.20;7.35;;;20.90;97.50;;;;;;5011452;28;20029;-89
2022/07/11 02:04:43;;;;;;;9.23;7.00;;;21.10;97.20;;;;;;5012717;28;20058;-90
2022/07/11 02:07:11;;;;;;;7.32;6.57;;;21.10;96.50;;;;;;4997355;28;20030;-91
2022/07/11 02:09:38;;;;;;;9.35;7.57;;;21.10;96.40;;;;;;4993603;28;20015;-90
2022/07/11 02:12:05;;;;;;;7.47;6.45;;;21.10;96.40;;;;;;4987119;28;20026;-90
2022/07/11 02:14:31;;;;;;;14.85;7.97;;;21.10;96.00;;;;;;5007006;28;20023;-89
2022/07/11 02:16:58;;;;;;;7.95;7.05;;;21.10;95.90;;;;;;4979066;28;20401;-91
2022/07/11 02:19:24;;;;;;;8.45;7.65;;;21.20;95.80;;;;;;4990886;28;20022;-90
2022/07/11 02:21:50;;;;;;;8.60;6.90;;;21.20;95.50;;;;;;4985948;28;20062;-91
2022/07/11 02:24:16;;;;;;;8.85;7.03;;;21.20;95.40;;;;;;4996462;28;20027;-90
2022/07/11 02:26:54;;;;;;;9.63;6.93;;;21.20;95.20;;;;;;4971672;28;20396;-90
2022/07/11 02:29:46;;;;;;;7.93;6.85;;;21.10;95.20;;;;;;4980567;28;20097;-91
2022/07/11 02:32:12;;;;;;;10.68;6.65;;;21.10;95.20;;;;;;4974948;28;20039;-91
2022/07/11 02:34:40;;;;;;;8.98;7.40;;;21.10;95.40;;;;;;4984910;28;20033;-88
2022/07/11 02:37:06;;;;;;;9.77;7.18;;;21.10;95.30;;;;;;5001971;28;20038;-89
2022/07/11 02:39:33;;;;;;;10.82;6.85;;;21.10;95.30;;;;;;4989602;28;20102;-88
2022/07/11 02:41:59;;;;;;;8.00;6.53;;;21.10;95.10;;;;;;4976418;28;20037;-90
2022/07/11 02:44:24;;;;;;;8.60;7.00;;;21.00;95.00;;;;;;4989720;28;20058;-91
2022/07/11 02:46:50;;;;;;;7.43;6.68;;;21.10;95.40;;;;;;4982812;28;20034;-91
2022/07/11 02:49:16;;;;;;;9.00;7.07;;;21.10;95.10;;;;;;4973261;28;20473;-89
2022/07/11 02:51:42;;;;;;;8.63;6.97;;;21.10;95.00;;;;;;4986752;28;20031;-90
2022/07/11 02:54:08;;;;;;;14.95;6.25;;;21.10;95.00;;;;;;4983655;28;20027;-89
2022/07/11 02:56:33;;;;;;;7.82;6.95;;;21.10;95.00;;;;;;4994435;28;20507;-90
2022/07/11 02:58:59;;;;;;;8.77;6.82;;;21.10;94.80;;;;;;4996008;28;20018;-88
2022/07/11 03:01:25;;;;;;;10.27;7.03;;;21.10;94.70;;;;;;4974117;28;20029;-88
2022/07/11 03:03:51;;;;;;;7.35;6.57;;;21.10;94.60;;;;;;4975077;28;20070;-87
2022/07/11 03:06:17;;;;;;;9.35;7.10;;;21.10;94.50;;;;;;4985464;28;20038;-92
2022/07/11 03:08:43;;;;;;;10.20;6.68;;;21.10;94.60;;;;;;4992806;28;20020;-92
2022/07/11 03:11:08;;;;;;;8.95;7.43;;;21.10;94.70;;;;;;5002339;28;20073;-90
2022/07/11 03:13:35;;;;;;;7.53;6.82;;;21.10;94.70;;;;;;5008820;28;20026;-90
2022/07/11 03:16:01;;;;;;;7.88;7.00;;;21.10;94.70;;;;;;4995447;28;20480;-88
2022/07/11 03:18:28;;;;;;;9.10;8.00;;;21.10;94.70;;;;;;4986850;28;20102;-89
2022/07/11 03:20:54;;;;;;;11.20;8.15;;;21.20;94.60;;;;;;4967602;28;20395;-87
2022/07/11 03:23:20;;;;;;;8.65;7.28;;;21.40;94.50;;;;;;4983620;28;20121;-88
2022/07/11 03:25:46;;;;;;;7.90;7.15;;;;;;;;;;4965532;28;20036;-89
2022/07/11 03:28:12;;;;;;;8.65;7.28;;;21.80;93.50;;;;;;4978978;28;20511;-89
2022/07/11 03:30:38;;;;;;;10.50;6.97;;;22.00;93.10;;;;;;4967702;28;20027;-89
2022/07/11 03:33:04;;;;;;;8.98;7.28;;;22.10;92.80;;;;;;4999981;28;20045;-90
2022/07/11 03:35:43;;;;;;;9.07;6.82;;;22.20;92.90;;;;;;5006800;28;20032;-90
2022/07/11 03:38:10;;;;;;;7.47;6.78;;;22.20;92.40;;;;;;5006411;28;20046;-91
2022/07/11 03:40:37;;;;;;;12.10;8.40;;;22.40;92.20;;;;;;4994379;28;20045;-92
2022/07/11 03:43:03;;;;;;;8.93;8.10;;;22.50;92.20;;;;;;4979761;28;20098;-92
2022/07/11 03:45:29;;;;;;;9.15;7.82;;;22.60;91.60;;;;;;4999902;28;20018;-90
2022/07/11 03:47:55;;;;;;;10.77;7.70;;;22.70;91.50;;;;;;4984490;28;20431;-89
2022/07/11 03:50:21;;;;;;;8.55;6.88;;;22.80;91.10;;;;;;4974771;28;20038;-91
2022/07/11 03:52:47;;;;;;;10.50;7.80;;;23.00;91.10;;;;;;5002553;28;20037;-89
2022/07/11 03:55:13;;;;;;;13.82;8.07;;;23.10;90.40;;;;;;4996546;28;20933;-89
2022/07/11 03:57:42;;;;;;;9.73;7.78;;;23.00;90.50;;;;;;4996857;28;20192;-91
2022/07/11 04:00:08;;;;;;;9.57;7.57;;;22.90;90.40;;;;;;4981818;28;20148;-91
2022/07/11 04:02:35;;;;;;;9.00;7.80;;;22.90;91.00;;;;;;4979180;28;20023;-88
2022/07/11 04:05:01;;;;;;;17.92;7.60;;;23.00;90.40;;;;;;4988408;28;20054;-94
2022/07/11 04:07:30;;;;;;;11.45;7.55;;;22.90;90.40;;;;;;4976965;28;20027;-95
2022/07/11 04:09:57;;;;;;;13.13;7.55;;;22.90;90.40;;;;;;4981935;28;20062;-93
2022/07/11 04:12:27;;;;;;;10.10;7.57;;;23.10;90.40;;;;;;4997103;28;20081;-93
2022/07/11 04:14:57;;;;;;;9.18;8.27;;;23.20;89.80;;;;;;4978772;28;20043;-95
2022/07/11 04:17:23;;;;;;;8.88;7.68;;;23.30;89.90;;;;;;4968623;28;20145;-96
2022/07/11 04:19:49;;;;;;;13.68;7.78;;;23.40;89.40;;;;;;5015776;28;20030;-96
2022/07/11 04:22:35;;;;;;;10.75;7.15;;;23.50;88.20;;;;;;4985983;28;20027;-96
2022/07/11 04:25:10;;;;;;;9.70;7.47;;;23.60;88.40;;;;;;4974302;28;20039;-91
2022/07/11 04:27:36;;;;;;;9.38;6.68;;;23.60;87.60;;;;;;4992237;28;20083;-90
2022/07/11 04:30:02;;;;;;;10.15;7.70;;;23.60;87.80;;;;;;4982728;28;20391;-91
2022/07/11 04:32:28;;;;;;;9.50;6.70;;;23.70;86.80;;;;;;4989870;28;20049;-91
2022/07/11 04:34:54;;;;;;;8.48;7.25;;;23.70;86.50;;;;;;4997705;28;20033;-93
2022/07/11 04:37:21;;;;;;;8.43;7.18;;;23.70;86.40;;;;;;5021843;28;20121;-94
2022/07/11 04:39:47;;;;;;;8.50;6.65;;;23.70;85.80;;;;;;4986847;28;20022;-90
2022/07/11 04:42:14;;;;;;;10.40;7.70;;;23.70;85.90;;;;;;5004572;28;20030;-88
2022/07/11 04:44:41;;;;;;;10.85;6.47;;;23.70;85.80;;;;;;5000891;28;20027;-90
2022/07/11 04:47:07;;;;;;;7.82;7.05;;;23.60;85.90;;;;;;4987550;28;20079;-91
2022/07/11 04:49:32;;;;;;;9.48;8.07;;;23.60;86.80;;;;;;4996098;28;20117;-90
2022/07/11 04:51:59;;;;;;;7.65;6.85;;;23.60;86.60;;;;;;5002712;28;20110;-92
2022/07/11 04:54:25;;;;;;;11.05;8.02;;;23.70;85.90;;;;;;4974821;28;20080;-90
2022/07/11 04:56:51;;;;;;;8.77;7.88;;;23.80;85.70;;;;;;5012523;28;20062;-92
2022/07/11 04:59:17;;;;;;;9.85;7.53;;;23.80;85.70;;;;;;5000066;28;20108;-90
2022/07/11 05:01:43;;;;;;;9.80;6.85;;;23.90;86.40;;;;;;5001471;28;20041;-91
2022/07/11 05:04:09;;;;;;;15.25;7.65;;;24.00;85.20;;;;;;4987156;28;20018;-92
2022/07/11 05:06:35;;;;;;;8.15;7.30;;;23.90;85.40;;;;;;5011909;28;20037;-93
2022/07/11 05:09:02;;;;;;;12.48;8.02;;;24.00;85.20;;;;;;5025615;28;20033;-94
2022/07/11 05:11:29;;;;;;;8.30;6.53;;;24.10;85.40;;;;;;4996770;28;20026;-95
2022/07/11 05:13:56;;;;;;;10.07;7.50;;;24.40;84.80;;;;;;4968926;28;20019;-92
2022/07/11 05:16:22;;;;;;;10.23;9.20;;;24.80;82.60;;;;;;4971693;28;20130;-93
2022/07/11 05:18:48;;;;;;;9.85;7.85;;;25.60;81.40;;;;;;4986156;28;20037;-90
2022/07/11 05:21:14;;;;;;;13.25;9.27;;;26.50;77.30;;;;;;4978900;28;20027;-91
2022/07/11 05:23:41;;;;;;;12.35;9.43;;;27.10;73.00;;;;;;4976421;28;20098;-93
2022/07/11 05:26:07;;;;;;;15.40;11.40;;;27.60;71.80;;;;;;4959874;28;20384;-94
2022/07/11 05:28:33;;;;;;;11.98;7.05;;;28.10;69.20;;;;;;4986727;28;20054;-94
2022/07/11 05:30:59;;;;;;;8.95;6.53;;;28.70;68.80;;;;;;5004499;28;20510;-95
2022/07/11 05:33:25;;;;;;;9.32;5.90;;;29.50;65.30;;;;;;5004793;28;20112;-91
2022/07/11 05:35:51;;;;;;;18.50;14.93;;;30.00;62.40;;;;;;5004024;28;20021;-93
2022/07/11 05:38:17;;;;;;;10.38;8.10;;;30.50;62.10;;;;;;4974104;28;20058;-93
2022/07/11 05:40:43;;;;;;;12.93;6.03;;;31.20;60.10;;;;;;4979490;28;20055;-94
2022/07/11 05:43:09;;;;;;;7.40;6.45;;;31.80;58.40;;;;;;4980396;28;20082;-95
2022/07/11 05:45:35;;;;;;;6.03;5.27;;;32.20;55.30;;;;;;5016965;28;20042;-92
2022/07/11 05:48:02;;;;;;;16.38;8.05;;;32.30;54.50;;;;;;5001859;28;20570;-94
2022/07/11 05:50:28;;;;;;;9.00;6.43;;;32.10;54.90;;;;;;5000584;28;20022;-94
2022/07/11 05:52:57;;;;;;;7.93;6.73;;;32.40;54.90;;;;;;4985113;28;20046;-93
2022/07/11 05:55:23;;;;;;;8.57;6.13;;;33.30;52.80;;;;;;5003183;28;20046;-90
2022/07/11 05:57:49;;;;;;;8.45;6.55;;;34.00;50.90;;;;;;4995528;28;20101;-91
2022/07/11 06:00:15;;;;;;;9.63;5.83;;;34.50;49.50;;;;;;4983617;28;20042;-90
2022/07/11 06:02:44;;;;;;;5.80;5.20;;;35.30;48.50;;;;;;5015999;28;20037;-91
2022/07/11 06:05:11;;;;;;;8.93;5.68;;;;;;;;;;4999737;28;20037;-88
2022/07/11 06:10:22;;;;;;;10.38;5.28;;;36.50;45.40;;;;;;4985420;28;20126;-89
2022/07/11 06:12:48;;;;;;;10.38;5.13;;;37.20;44.10;;;;;;4980211;28;20057;-91
2022/07/11 06:15:13;;;;;;;8.20;4.83;;;37.50;42.80;;;;;;4972057;28;20088;-91
2022/07/11 06:17:40;;;;;;;10.60;5.05;;;;;;;;;;4979296;28;20456;-91
2022/07/11 06:20:06;;;;;;;9.10;5.53;;;39.40;40.10;;;;;;4991852;28;20026;-92
2022/07/11 06:22:32;;;;;;;;;;;40.30;41.00;;;;;;4985885;28;20117;-91
2022/07/11 06:24:57;;;;;;;;;;;40.40;41.90;;;;;;5004684;28;19941;-90
2022/07/11 06:27:23;;;;;;;9.02;5.38;;;41.10;41.40;;;;;;4963621;28;19910;-92
2022/07/11 06:29:49;;;;;;;8.77;5.22;;;41.40;38.30;;;;;;4988234;28;20068;-90
2022/07/11 06:32:15;;;;;;;11.52;6.85;;;41.90;37.60;;;;;;4996157;28;20042;-92
2022/07/11 06:34:42;;;;;;;14.93;9.38;;;40.50;37.60;;;;;;4968404;28;20463;-90
2022/07/11 06:37:07;;;;;;;15.43;7.70;;;39.60;39.80;;;;;;4985306;28;20069;-89
2022/07/11 06:39:33;;;;;;;12.98;7.20;;;38.80;40.80;;;;;;4984476;28;20023;-90
2022/07/11 06:41:59;;;;;;;14.32;5.93;;;38.70;40.10;;;;;;4979409;28;20078;-93
2022/07/11 06:44:25;;;;;;;9.27;6.25;;;39.30;39.80;;;;;;4990851;28;20026;-93
2022/07/11 06:46:52;;;;;;;11.60;5.53;;;39.90;38.50;;;;;;5006007;28;20030;-93
2022/07/11 06:49:18;;;;;;;10.68;7.25;;;39.70;38.00;;;;;;5000624;28;20026;-95
2022/07/11 06:51:45;;;;;;;6.93;5.55;;;39.90;38.60;;;;;;5013296;28;20030;-93
2022/07/11 06:54:11;;;;;;;15.50;6.85;;;40.00;38.50;;;;;;4981165;28;20027;-85
2022/07/11 06:56:37;;;;;;;14.50;7.20;;;40.60;38.30;;;;;;4988377;28;20030;-88
2022/07/11 06:59:03;;;;;;;8.73;5.50;;;40.60;38.20;;;;;;4988663;28;20026;-86
2022/07/11 07:01:29;;;;;;;7.30;5.65;;;40.00;38.40;;;;;;4984552;28;20035;-90
2022/07/11 07:03:57;;;;;;;10.48;5.78;;;39.80;38.80;;;;;;4997643;28;20113;-95
2022/07/11 07:06:23;;;;;;;13.60;6.00;;;40.40;38.80;;;;;;4962945;28;20120;-87
2022/07/11 07:08:49;;;;;;;8.85;5.57;;;41.30;38.20;;;;;;4978391;28;20026;-84
2022/07/11 07:11:14;;;;;;;9.00;4.20;;;41.00;37.50;;;;;;4983527;28;20122;-84
2022/07/11 07:13:40;;;;;;;8.40;5.25;;;39.90;37.20;;;;;;4958205;28;20034;-83
2022/07/11 07:16:06;;;;;;;9.63;5.55;;;39.10;39.20;;;;;;4954209;28;20042;-84
2022/07/11 07:18:33;;;;;;;12.48;5.38;;;38.90;39.70;;;;;;4954525;28;20457;-82
2022/07/11 07:20:58;;;;;;;;;;;38.50;39.90;;;;;;4954878;28;20046;-83
2022/07/11 07:23:24;;;;;;;6.55;4.70;;;38.40;40.70;;;;;;4954463;28;19907;-83
2022/07/11 07:25:50;;;;;;;9.13;6.40;;;38.40;39.70;;;;;;4954180;28;20517;-82
2022/07/11 07:28:16;;;;;;;15.02;9.68;;;37.90;40.40;;;;;;4954707;28;20035;-82
2022/07/11 07:30:43;;;;;;;11.52;5.95;;;37.60;41.10;;;;;;4979237;28;20037;-83
2022/07/11 07:33:11;;;;;;;8.77;5.07;;;38.50;40.90;;;;;;4954381;28;20048;-84
2022/07/11 07:35:37;;;;;;;6.20;4.32;;;39.20;39.30;;;;;;4955542;28;20046;-82
2022/07/11 07:38:03;;;;;;;11.77;6.15;;;39.20;38.80;;;;;;4954610;28;20039;-83
2022/07/11 07:40:29;;;;;;;11.45;6.78;;;39.20;39.70;;;;;;4958725;28;20032;-83
2022/07/11 07:42:55;;;;;;;15.82;9.00;;;40.00;38.60;;;;;;4974828;28;20041;-82
2022/07/11 07:45:21;;;;;;;8.75;5.60;;;39.40;38.30;;;;;;4966671;28;20031;-81
2022/07/11 07:47:49;;;;;;;5.82;4.88;;;38.10;39.60;;;;;;4981871;28;20038;-82
2022/07/11 07:50:15;;;;;;;14.45;6.65;;;37.40;40.90;;;;;;4989224;28;20023;-83
2022/07/11 07:52:43;;;;;;;6.93;4.68;;;38.40;41.10;;;;;;4973188;28;20070;-83
2022/07/11 07:55:09;;;;;;;7.28;4.85;;;39.60;39.30;;;;;;5001089;28;20027;-82
2022/07/11 07:57:35;;;;;;;8.35;6.25;;;40.80;38.00;;;;;;4966740;28;20412;-83
2022/07/11 08:02:50;;;;;;;9.10;4.60;;;;;;;;;;4985569;28;20031;-83
2022/07/11 08:05:17;;;;;;;11.45;5.47;;;;;;;;;;4994177;28;20021;-83
2022/07/11 08:07:44;;;;;;;9.82;5.43;;;;;;;;;;4981186;28;20136;-84
2022/07/11 08:10:10;;;;;;;8.55;5.72;;;;;;;;;;4998235;28;20056;-84
2022/07/11 08:12:36;;;;;;;10.32;4.65;;;;;;;;;;4997879;28;20028;-83
2022/07/11 08:15:03;;;;;;;7.95;6.00;;;;;;;;;;5001021;28;20082;-84
2022/07/11 08:17:29;;;;;;;5.55;5.05;;;;;;;;;;4988035;28;20037;-84
2022/07/11 08:19:55;;;;;;;5.00;4.50;;;;;;;;;;5010779;28;20022;-84
2022/07/11 08:22:22;;;;;;;7.38;5.10;;;;;;;;;;5005491;28;20037;-84
2022/07/11 08:24:48;;;;;;;8.15;4.93;;;;;;;;;;5015693;28;20025;-83
2022/07/11 08:27:14;;;;;;;;;;;;;;;;;;5003022;28;20066;-83
2022/07/11 08:29:40;;;;;;;7.20;4.80;;;;;;;;;;4991916;28;19905;-84
2022/07/11 08:32:06;;;;;;;5.18;4.13;;;;;;;;;;5010385;28;20027;-84
2022/07/11 08:34:33;;;;;;;9.25;4.13;;;;;;;;;;5001960;28;20092;-85
2022/07/11 08:36:59;;;;;;;9.52;4.85;;;;;;;;;;5002360;28;20137;-83
2022/07/11 08:39:24;;;;;;;;;;;40.90;34.60;;;;;;4973587;28;20014;-82
2022/07/11 08:41:51;;;;;;;9.07;5.40;;;40.40;35.70;;;;;;4987875;28;20000;-85
2022/07/11 08:44:19;;;;;;;9.20;5.13;;;39.30;36.70;;;;;;5004280;28;20030;-85
2022/07/11 08:46:45;;;;;;;7.32;5.32;;;38.40;36.90;;;;;;5000517;28;20022;-85
2022/07/11 08:49:14;;;;;;;11.75;5.95;;;38.10;38.40;;;;;;4984069;28;20026;-84
2022/07/11 08:51:41;;;;;;;14.10;6.07;;;38.60;37.50;;;;;;4991978;28;20110;-81
2022/07/11 08:54:07;;;;;;;7.72;4.50;;;39.30;37.30;;;;;;5012531;28;20026;-82
2022/07/11 08:56:34;;;;;;;8.77;5.07;;;40.90;36.20;;;;;;4991367;28;20094;-83
2022/07/11 08:59:00;;;;;;;10.65;4.78;;;42.30;34.30;;;;;;4984495;28;20030;-83
2022/07/11 09:01:31;;;;;;;9.48;5.95;;;41.50;34.40;;;;;;4995706;28;20058;-84
2022/07/11 09:04:01;;;;;;;9.23;6.28;;;41.20;35.20;;;;;;4983397;28;20030;-82
2022/07/11 09:06:28;;;;;;;13.48;7.78;;;40.40;35.30;;;;;;4998656;28;20068;-83
2022/07/11 09:09:00;;;;;;;6.35;5.18;;;39.30;36.10;;;;;;5000669;28;20014;-82
2022/07/11 09:11:27;;;;;;;7.25;5.45;;;38.50;37.00;;;;;;5012137;28;20057;-83
2022/07/11 09:13:53;;;;;;;7.97;4.97;;;38.50;37.80;;;;;;5003693;28;20026;-83
2022/07/11 09:16:19;;;;;;;6.72;5.28;;;38.00;37.50;;;;;;5001085;28;20061;-83
2022/07/11 09:18:45;;;;;;;7.07;4.70;;;37.60;38.70;;;;;;4984794;28;20026;-84
2022/07/11 09:26:50;;;;;;;6.28;4.78;;;39.00;36.30;;;;;;5000359;28;20033;-83
2022/07/11 09:29:21;;;;;;;6.47;5.55;;;38.40;37.20;;;;;;5015283;28;20050;-86
2022/07/11 09:31:48;;;;;;;7.35;4.55;;;38.40;38.10;;;;;;4982248;28;20472;-83
2022/07/11 09:34:19;;;;;;;8.18;5.07;;;38.90;37.00;;;;;;5014704;28;20022;-84
2022/07/11 09:36:51;;;;;;;11.13;5.82;;;39.90;36.70;;;;;;5001290;28;20026;-83
2022/07/11 09:39:19;;;;;;;8.32;5.75;;;39.90;35.70;;;;;;5006357;28;20086;-83
2022/07/11 09:41:46;;;;;;;9.05;6.22;;;39.00;36.70;;;;;;4997613;28;20018;-84
2022/07/11 09:44:18;;;;;;;7.07;4.50;;;39.40;37.00;;;;;;5013829;28;20022;-86
2022/07/11 09:46:49;;;;;;;8.45;5.50;;;;;;;;;;4985748;28;20057;-84
2022/07/11 09:49:28;;;;;;;7.80;4.18;;;42.40;34.30;;;;;;5014547;28;20022;-84
2022/07/11 09:51:55;;;;;;;6.40;4.22;;;43.90;33.10;;;;;;5007895;28;20056;-84
2022/07/11 09:54:21;;;;;;;7.60;3.97;;;45.10;32.10;;;;;;5004962;28;20064;-84
2022/07/11 09:56:51;;;;;;;12.80;4.20;;;45.20;31.50;;;;;;4983294;28;20054;-83
2022/07/11 09:59:18;;;;;;;8.50;5.28;;;45.80;31.10;;;;;;4981668;28;20076;-83
2022/07/11 10:01:45;;;;;;;9.13;4.15;;;46.20;30.70;;;;;;4965875;28;20056;-84
2022/07/11 10:04:11;;;;;;;10.85;4.13;;;46.10;30.40;;;;;;4979317;28;20034;-83
2022/07/11 10:06:38;;;;;;;7.82;4.55;;;45.10;30.50;;;;;;5001572;28;20050;-83
2022/07/11 10:09:05;;;;;;;11.57;4.90;;;44.10;31.40;;;;;;4987702;28;20109;-85
2022/07/11 10:11:35;;;;;;;13.65;7.38;;;43.70;32.60;;;;;;5009267;28;20030;-84
2022/07/11 10:14:04;;;;;;;4.80;3.60;;;44.20;31.80;;;;;;5000372;28;20018;-84
2022/07/11 10:16:45;;;;;;;7.32;3.45;;;44.70;30.70;;;;;;4998878;28;20053;-84
2022/07/11 10:19:24;;;;;;;8.18;3.88;;;45.30;30.00;;;;;;4999218;28;20033;-83
2022/07/11 10:22:28;;;;;;;5.82;3.22;;;45.80;29.70;;;;;;4999168;28;20041;-85
2022/07/11 10:25:09;;;;;;;11.85;3.53;;;45.80;29.30;;;;;;4989706;28;20038;-83
2022/07/11 10:27:58;;;;;;;5.80;3.50;;;45.60;29.30;;;;;;5016399;28;20018;-85
2022/07/11 10:30:48;;;;;;;5.38;3.30;;;45.70;29.80;;;;;;5005491;28;20116;-84
2022/07/11 10:33:15;;;;;;;7.93;3.20;;;45.80;29.60;;;;;;4991930;28;20077;-84
2022/07/11 10:35:44;;;;;;;8.48;4.03;;;44.10;29.40;;;;;;5019422;28;20074;-84
2022/07/11 10:38:10;;;;;;;5.30;4.22;;;42.20;30.70;;;;;;5004831;28;20505;-84
2022/07/11 10:40:55;;;;;;;9.65;4.72;;;40.40;32.30;;;;;;5005088;28;20030;-85
2022/07/11 10:43:30;;;;;;;7.25;4.32;;;38.70;34.40;;;;;;4999367;28;20037;-83
2022/07/11 10:46:00;;;;;;;8.23;4.90;;;37.40;35.80;;;;;;4967532;28;20126;-85
2022/07/11 10:48:27;;;;;;;10.13;6.18;;;36.60;37.30;;;;;;4964130;28;20110;-84
2022/07/11 10:51:11;;;;;;;7.15;4.57;;;35.80;38.50;;;;;;4994503;28;20519;-85
2022/07/11 10:53:50;;;;;;;13.55;5.43;;;35.20;38.60;;;;;;4984048;28;20034;-84
2022/07/11 10:56:21;;;;;;;8.73;5.35;;;34.70;40.20;;;;;;4982378;28;20035;-83
2022/07/11 10:59:01;;;;;;;9.25;5.47;;;34.40;41.10;;;;;;4997187;28;20081;-83
2022/07/11 11:01:27;;;;;;;10.50;5.38;;;34.20;40.60;;;;;;4999245;28;20058;-85
2022/07/11 11:04:31;;;;;;;12.65;7.05;;;34.00;41.30;;;;;;4987216;28;20388;-84
2022/07/11 11:06:58;;;;;;;6.88;5.45;;;33.90;41.50;;;;;;5002562;28;20019;-84
2022/07/11 11:09:39;;;;;;;7.85;4.63;;;33.70;42.30;;;;;;4996755;28;20057;-83
2022/07/11 11:12:05;;;;;;;10.55;5.78;;;33.70;41.70;;;;;;4995797;28;20027;-83
2022/07/11 11:14:31;;;;;;;11.97;5.53;;;33.50;41.50;;;;;;4995400;28;20058;-83
2022/07/11 11:17:35;;;;;;;9.50;5.03;;;33.40;41.60;;;;;;4994915;28;20034;-84
2022/07/11 11:20:04;;;;;;;9.88;5.43;;;33.30;41.60;;;;;;4994563;28;20022;-83
2022/07/11 11:22:30;;;;;;;13.15;5.57;;;33.20;42.40;;;;;;4995176;28;20045;-82
2022/07/11 11:24:57;;;;;;;6.38;4.75;;;33.20;42.70;;;;;;4998274;28;20025;-82
2022/07/11 11:27:25;;;;;;;10.68;4.70;;;33.10;41.80;;;;;;4980711;28;20031;-81
2022/07/11 11:29:52;;;;;;;10.20;6.05;;;33.10;42.60;;;;;;4986910;28;20025;-82
2022/07/11 11:32:19;;;;;;;9.77;5.20;;;33.10;42.50;;;;;;5000209;28;20026;-83
2022/07/11 11:34:45;;;;;;;11.55;5.93;;;33.20;42.20;;;;;;5000796;28;20018;-82
2022/07/11 11:37:11;;;;;;;6.17;5.17;;;33.20;43.30;;;;;;5014428;28;20026;-83
2022/07/11 11:39:39;;;;;;;17.20;5.30;;;33.20;43.00;;;;;;4995881;28;20026;-84
2022/07/11 11:42:06;;;;;;;12.82;5.43;;;33.20;42.40;;;;;;4998672;28;20022;-82
2022/07/11 11:44:33;;;;;;;12.63;5.53;;;33.00;42.60;;;;;;5008310;28;20018;-82
2022/07/11 11:47:00;;;;;;;7.43;4.90;;;33.10;42.80;;;;;;4994411;28;20031;-84
2022/07/11 11:49:26;;;;;;;13.23;4.97;;;33.10;42.60;;;;;;4976401;28;20027;-86
2022/07/11 11:51:55;;;;;;;7.67;4.83;;;33.20;42.10;;;;;;4994020;28;20263;-84
2022/07/11 11:54:23;;;;;;;13.32;4.82;;;33.20;41.70;;;;;;4993772;28;20101;-82
2022/07/11 11:56:49;;;;;;;9.10;5.05;;;33.30;42.10;;;;;;4981752;28;20047;-85
2022/07/11 11:59:15;;;;;;;12.37;4.47;;;33.40;42.50;;;;;;4995073;28;20362;-83
2022/07/11 12:01:46;;;;;;;6.80;5.60;;;33.50;42.10;;;;;;4986371;28;20151;-82
2022/07/11 12:04:14;;;;;;;11.30;4.90;;;33.50;42.20;;;;;;4976706;28;20033;-82
2022/07/11 12:06:50;;;;;;;10.20;4.88;;;33.60;41.80;;;;;;4994288;28;20030;-82
2022/07/11 12:09:18;;;;;;;10.15;4.93;;;33.80;42.20;;;;;;4980850;28;20082;-84
2022/07/11 12:11:46;;;;;;;7.47;4.47;;;33.90;41.70;;;;;;4995585;28;20034;-83
2022/07/11 12:14:14;;;;;;;12.55;5.03;;;33.90;41.10;;;;;;4993469;28;20098;-84
2022/07/11 12:16:43;;;;;;;7.78;4.22;;;33.70;41.60;;;;;;4993734;28;20046;-82
2022/07/11 12:19:14;;;;;;;9.15;4.38;;;33.60;41.50;;;;;;4993410;28;20018;-84
2022/07/11 12:21:43;;;;;;;9.43;5.35;;;33.50;41.90;;;;;;4965871;28;20026;-83
2022/07/11 12:24:20;;;;;;;10.02;4.90;;;33.50;42.00;;;;;;4991895;28;20029;-83
2022/07/11 12:26:47;;;;;;;10.98;4.40;;;33.50;42.00;;;;;;4993732;28;20081;-82
2022/07/11 12:29:16;;;;;;;18.13;4.60;;;33.60;42.10;;;;;;4981033;28;20019;-83
2022/07/11 12:31:52;;;;;;;13.02;4.88;;;33.60;42.20;;;;;;4978558;28;20026;-82
2022/07/11 12:34:40;;;;;;;9.40;4.93;;;33.70;42.50;;;;;;4997455;28;20094;-83
2022/07/11 12:37:08;;;;;;;24.90;7.50;;;33.60;42.10;;;;;;4997290;28;20388;-84
2022/07/11 12:39:39;;;;;;;8.90;4.75;;;33.50;43.10;;;;;;4977979;28;20049;-84
2022/07/11 12:42:25;;;;;;;5.78;3.90;;;33.40;42.00;;;;;;5005913;28;20045;-83
2022/07/11 12:45:13;;;;;;;9.88;4.78;;;33.40;42.10;;;;;;4994765;28;20093;-83
2022/07/11 12:47:44;;;;;;;21.50;6.40;;;33.40;42.60;;;;;;4993556;28;20031;-82
2022/07/11 12:50:20;;;;;;;49.70;10.52;;;33.40;42.80;;;;;;4994281;28;20050;-84
2022/07/11 12:52:48;;;;;;;14.40;6.10;;;33.50;42.70;;;;;;4994442;28;20023;-83
2022/07/11 12:55:23;;;;;;;11.48;5.50;;;33.60;42.90;;;;;;4996839;28;20449;-83
2022/07/11 12:58:10;;;;;;;18.80;4.88;;;33.60;43.20;;;;;;4996657;28;20066;-85
2022/07/11 13:00:39;;;;;;;9.18;5.57;;;33.70;42.80;;;;;;4993176;28;20156;-83
2022/07/11 13:03:06;;;;;;;50.03;11.80;;;33.70;42.80;;;;;;4999349;28;20482;-82
2022/07/11 13:05:49;;;;;;;24.52;6.30;;;33.60;43.10;;;;;;4994477;28;20025;-84
2022/07/11 13:08:42;;;;;;;13.15;5.22;;;33.60;43.00;;;;;;4986329;28;20027;-82